createdAt,value
2018-10-11T00:00:25.016Z,98.70
2018-10-11T00:02:53.134Z,99.00
2018-10-11T00:05:21.219Z,99.20
2018-10-11T00:07:49.275Z,99.30
2018-10-11T00:10:17.369Z,99.20
2018-10-11T00:12:45.418Z,99.30
2018-10-11T00:15:13.489Z,99.40
2018-10-11T00:17:41.553Z,99.40
2018-10-11T00:20:09.690Z,99.50
2018-10-11T00:22:37.729Z,99.50
2018-10-11T00:25:05.809Z,99.60
2018-10-11T00:27:33.867Z,99.70
2018-10-11T00:30:01.957Z,99.80
2018-10-11T00:32:30.037Z,99.90
2018-10-11T00:34:58.103Z,99.90
2018-10-11T00:37:26.174Z,99.90
2018-10-11T00:39:54.227Z,99.90
2018-10-11T00:42:22.332Z,99.90
2018-10-11T00:44:50.431Z,99.90
2018-10-11T00:47:18.506Z,99.90
2018-10-11T00:49:46.580Z,99.90
2018-10-11T00:52:14.667Z,99.90
2018-10-11T00:54:42.740Z,99.90
2018-10-11T00:57:10.812Z,99.90
2018-10-11T00:59:38.866Z,99.90
2018-10-11T01:02:06.978Z,99.90
2018-10-11T01:04:35.037Z,99.90
2018-10-11T01:07:03.098Z,99.90
2018-10-11T01:09:31.356Z,99.90
2018-10-11T01:11:59.270Z,99.90
2018-10-11T01:14:27.351Z,99.90
2018-10-11T01:16:55.460Z,99.90
2018-10-11T01:19:23.535Z,99.90
2018-10-11T01:21:51.584Z,99.90
2018-10-11T01:24:19.631Z,99.90
2018-10-11T01:26:47.739Z,99.90
2018-10-11T01:29:15.835Z,99.90
2018-10-11T01:31:44.008Z,99.90
2018-10-11T01:34:12.120Z,99.90
2018-10-11T01:36:40.354Z,99.90
2018-10-11T01:39:08.442Z,99.90
2018-10-11T01:41:36.525Z,99.90
2018-10-11T01:44:04.596Z,99.90
2018-10-11T01:46:32.683Z,99.90
2018-10-11T01:49:00.756Z,99.90
2018-10-11T01:51:28.842Z,99.90
2018-10-11T01:53:56.928Z,99.90
2018-10-11T01:56:25.000Z,99.90
2018-10-11T01:58:53.059Z,99.90
2018-10-11T02:01:21.199Z,99.90
2018-10-11T02:03:49.281Z,99.90
2018-10-11T02:06:17.353Z,99.90
2018-10-11T02:08:45.420Z,99.90
2018-10-11T02:11:13.529Z,99.90
2018-10-11T02:13:41.601Z,99.90
2018-10-11T02:16:09.830Z,99.90
2018-10-11T02:18:37.907Z,99.90
2018-10-11T02:21:06.415Z,99.90
2018-10-11T02:23:34.864Z,99.90
2018-10-11T02:26:02.962Z,99.90
2018-10-11T02:28:31.109Z,99.90
2018-10-11T02:30:59.211Z,99.90
2018-10-11T02:33:27.302Z,99.90
2018-10-11T02:35:55.750Z,99.90
2018-10-11T02:38:23.876Z,99.90
2018-10-11T02:40:51.941Z,99.90
2018-10-11T02:43:20.010Z,99.90
2018-10-11T02:45:48.115Z,99.90
2018-10-11T02:48:16.191Z,99.90
2018-10-11T02:50:44.325Z,99.90
2018-10-11T02:53:12.506Z,99.90
2018-10-11T02:55:40.895Z,99.90
2018-10-11T02:58:20.565Z,99.90
2018-10-11T03:00:48.653Z,99.90
2018-10-11T03:03:19.638Z,99.90
2018-10-11T03:05:47.711Z,99.90
2018-10-11T03:08:16.184Z,99.90
2018-10-11T03:10:44.443Z,99.90
2018-10-11T03:13:13.743Z,99.90
2018-10-11T03:15:42.721Z,99.90
2018-10-11T03:18:11.423Z,99.90
2018-10-11T03:20:40.411Z,99.90
2018-10-11T03:23:09.044Z,99.90
2018-10-11T03:25:37.113Z,99.90
2018-10-11T03:28:05.224Z,99.90
2018-10-11T03:30:33.301Z,99.90
2018-10-11T03:33:01.425Z,99.90
2018-10-11T03:35:29.507Z,99.90
2018-10-11T03:37:57.992Z,99.90
2018-10-11T03:40:26.528Z,99.90
2018-10-11T03:42:54.821Z,99.90
2018-10-11T03:45:22.857Z,99.90
2018-10-11T03:47:51.015Z,99.90
2018-10-11T03:50:19.092Z,99.90
2018-10-11T03:52:47.225Z,99.90
2018-10-11T03:55:15.281Z,99.90
2018-10-11T03:57:43.399Z,99.90
2018-10-11T04:00:11.464Z,99.90
2018-10-11T04:02:39.698Z,99.90
2018-10-11T04:05:07.806Z,99.90
2018-10-11T04:07:35.970Z,99.90
2018-10-11T04:10:04.017Z,99.90
2018-10-11T04:12:32.105Z,99.90
2018-10-11T04:15:00.231Z,99.90
2018-10-11T04:17:28.451Z,99.90
2018-10-11T04:19:56.869Z,99.90
2018-10-11T04:22:25.036Z,99.90
2018-10-11T04:24:53.118Z,99.90
2018-10-11T04:27:21.272Z,99.90
2018-10-11T04:29:49.373Z,99.90
2018-10-11T04:32:17.458Z,99.90
2018-10-11T04:34:45.571Z,99.90
2018-10-11T04:37:13.704Z,99.90
2018-10-11T04:39:41.923Z,99.90
2018-10-11T04:42:10.602Z,99.90
2018-10-11T04:44:38.711Z,99.90
2018-10-11T04:47:07.465Z,99.90
2018-10-11T04:49:35.852Z,99.90
2018-10-11T04:52:04.003Z,99.90
2018-10-11T04:54:32.103Z,99.90
2018-10-11T04:57:00.192Z,99.90
2018-10-11T04:59:28.271Z,99.90
2018-10-11T05:01:56.360Z,99.90
2018-10-11T05:04:24.475Z,99.90
2018-10-11T05:06:52.548Z,99.90
2018-10-11T05:09:20.813Z,99.90
2018-10-11T05:11:48.897Z,99.90
2018-10-11T05:14:16.970Z,99.90
2018-10-11T05:16:45.089Z,99.90
2018-10-11T05:19:13.198Z,99.90
2018-10-11T05:21:41.412Z,99.90
2018-10-11T05:24:09.498Z,99.90
2018-10-11T05:26:37.578Z,99.90
2018-10-11T05:29:05.677Z,99.90
2018-10-11T05:31:33.828Z,99.90
2018-10-11T05:34:01.931Z,99.90
2018-10-11T05:36:30.206Z,99.90
2018-10-11T05:38:58.427Z,99.90
2018-10-11T05:41:26.628Z,99.80
2018-10-11T05:43:54.715Z,99.60
2018-10-11T05:46:31.473Z,99.30
2018-10-11T05:49:00.197Z,99.10
2018-10-11T05:51:29.118Z,99.00
2018-10-11T05:53:57.751Z,99.00
2018-10-11T05:56:28.471Z,99.20
2018-10-11T05:58:56.797Z,98.80
2018-10-11T06:01:25.262Z,98.80
2018-10-11T06:03:53.854Z,98.80
2018-10-11T06:06:21.913Z,98.70
2018-10-11T06:08:50.056Z,98.50
2018-10-11T06:11:18.202Z,98.20
2018-10-11T06:13:47.045Z,98.00
2018-10-11T06:16:15.317Z,97.70
2018-10-11T06:18:44.025Z,97.50
2018-10-11T06:21:12.284Z,97.10
2018-10-11T06:23:40.552Z,96.90
2018-10-11T06:26:08.623Z,96.70
2018-10-11T06:28:36.719Z,96.40
2018-10-11T06:31:04.788Z,96.00
2018-10-11T06:33:32.865Z,95.70
2018-10-11T06:36:00.950Z,94.30
2018-10-11T06:38:29.317Z,92.90
2018-10-11T06:40:58.143Z,92.00
2018-10-11T06:43:26.264Z,91.50
2018-10-11T06:45:54.348Z,91.50
2018-10-11T06:48:22.433Z,92.00
2018-10-11T06:50:50.605Z,92.50
2018-10-11T06:53:18.729Z,92.90
2018-10-11T06:55:46.845Z,93.10
2018-10-11T06:58:14.932Z,93.20
2018-10-11T07:00:43.024Z,93.30
2018-10-11T07:03:11.116Z,93.50
2018-10-11T07:05:39.206Z,93.20
2018-10-11T07:08:07.262Z,93.30
2018-10-11T07:10:35.334Z,93.30
2018-10-11T07:13:03.481Z,93.20
2018-10-11T07:15:31.568Z,93.20
2018-10-11T07:17:59.642Z,93.10
2018-10-11T07:20:27.734Z,93.10
2018-10-11T07:22:55.826Z,92.70
2018-10-11T07:25:23.923Z,92.40
2018-10-11T07:27:52.009Z,91.80
2018-10-11T07:30:20.116Z,91.70
2018-10-11T07:32:48.163Z,91.40
2018-10-11T07:35:16.313Z,91.30
2018-10-11T07:37:44.328Z,91.30
2018-10-11T07:40:12.475Z,91.00
2018-10-11T07:42:40.577Z,90.70
2018-10-11T07:45:08.675Z,90.50
2018-10-11T07:47:36.790Z,90.10
2018-10-11T07:50:05.325Z,90.10
2018-10-11T07:52:33.409Z,89.40
2018-10-11T07:55:01.489Z,88.70
2018-10-11T07:57:29.531Z,87.40
2018-10-11T07:59:57.660Z,86.60
2018-10-11T08:02:25.738Z,86.70
2018-10-11T08:04:53.845Z,85.90
2018-10-11T08:07:21.953Z,84.90
2018-10-11T08:09:50.029Z,83.90
2018-10-11T08:12:18.092Z,83.60
2018-10-11T08:14:46.169Z,82.50
2018-10-11T08:17:14.593Z,82.20
2018-10-11T08:19:42.433Z,81.80
2018-10-11T08:22:10.489Z,81.10
2018-10-11T08:24:38.577Z,79.10
2018-10-11T08:27:06.747Z,78.10
2018-10-11T08:29:34.791Z,77.60
2018-10-11T08:32:02.948Z,76.40
2018-10-11T08:34:31.028Z,75.20
2018-10-11T08:36:59.108Z,74.50
2018-10-11T08:39:27.238Z,73.90
2018-10-11T08:41:55.317Z,73.70
2018-10-11T08:44:23.386Z,73.10
2018-10-11T08:46:51.540Z,72.20
2018-10-11T08:49:19.656Z,71.90
2018-10-11T08:51:47.690Z,71.80
2018-10-11T08:54:50.775Z,71.50
2018-10-11T08:57:19.672Z,71.20
2018-10-11T08:59:47.833Z,70.60
2018-10-11T09:02:15.960Z,70.60
2018-10-11T09:04:44.397Z,70.60
2018-10-11T09:07:12.519Z,70.60
2018-10-11T09:09:40.690Z,70.90
2018-10-11T09:12:08.716Z,70.90
2018-10-11T09:14:43.360Z,70.60
2018-10-11T09:17:11.496Z,70.00
2018-10-11T09:19:39.576Z,69.90
2018-10-11T09:22:07.664Z,69.90
2018-10-11T09:24:35.755Z,70.00
2018-10-11T09:27:03.888Z,69.80
2018-10-11T09:29:32.092Z,69.20
2018-10-11T09:32:00.220Z,68.80
2018-10-11T09:34:28.327Z,68.80
2018-10-11T09:36:56.423Z,68.40
2018-10-11T09:39:24.532Z,67.90
2018-10-11T09:41:52.601Z,68.00
2018-10-11T09:44:20.704Z,67.60
2018-10-11T09:46:48.805Z,67.00
2018-10-11T09:49:16.909Z,66.60
2018-10-11T09:51:44.998Z,65.60
2018-10-11T09:54:13.069Z,65.50
2018-10-11T09:57:50.130Z,63.90
2018-10-11T10:00:23.753Z,64.00
2018-10-11T10:02:52.185Z,63.00
2018-10-11T10:05:20.199Z,62.00
2018-10-11T10:07:48.475Z,62.30
2018-10-11T10:10:16.573Z,61.30
2018-10-11T10:12:44.757Z,61.20
2018-10-11T10:15:12.822Z,60.50
2018-10-11T10:17:40.900Z,59.80
2018-10-11T10:20:08.995Z,59.40
2018-10-11T10:22:37.079Z,59.30
2018-10-11T10:25:05.159Z,58.80
2018-10-11T10:27:33.357Z,58.40
2018-10-11T10:30:05.613Z,58.50
2018-10-11T10:32:33.716Z,58.00
2018-10-11T10:35:01.776Z,57.90
2018-10-11T10:37:29.886Z,57.30
2018-10-11T10:39:58.007Z,57.30
2018-10-11T10:42:26.093Z,56.60
2018-10-11T10:44:54.246Z,56.40
2018-10-11T10:47:22.354Z,56.10
2018-10-11T10:49:57.165Z,55.70
2018-10-11T10:52:25.249Z,55.60
2018-10-11T10:54:53.338Z,55.40
2018-10-11T10:57:21.400Z,54.90
2018-10-11T10:59:49.503Z,55.50
2018-10-11T11:02:17.596Z,54.90
2018-10-11T11:04:45.692Z,55.10
2018-10-11T11:07:13.860Z,54.40
2018-10-11T11:09:41.938Z,54.20
2018-10-11T11:12:10.046Z,53.70
2018-10-11T11:14:38.131Z,54.10
2018-10-11T11:17:06.223Z,53.80
2018-10-11T11:19:34.300Z,53.60
2018-10-11T11:22:02.407Z,53.00
2018-10-11T11:24:30.472Z,53.00
2018-10-11T11:26:58.548Z,53.40
2018-10-11T11:29:26.674Z,52.30
2018-10-11T11:31:54.884Z,52.30
2018-10-11T11:34:22.972Z,52.50
2018-10-11T11:36:51.062Z,52.50
2018-10-11T11:39:19.196Z,51.80
2018-10-11T11:41:47.293Z,51.70
2018-10-11T11:44:15.410Z,51.70
2018-10-11T11:46:43.476Z,51.80
2018-10-11T11:49:11.596Z,52.00
2018-10-11T11:51:39.697Z,52.30
2018-10-11T11:54:13.250Z,49.30
2018-10-11T11:56:41.311Z,49.80
2018-10-11T11:59:09.475Z,50.20
2018-10-11T12:01:37.669Z,50.30
2018-10-11T12:04:05.754Z,50.40
2018-10-11T12:06:33.821Z,49.70
2018-10-11T12:09:01.932Z,49.50
2018-10-11T12:11:30.022Z,49.50
2018-10-11T12:13:58.112Z,49.30
2018-10-11T12:16:26.222Z,49.30
2018-10-11T12:18:55.189Z,49.40
2018-10-11T12:21:23.245Z,49.50
2018-10-11T12:23:51.362Z,49.50
2018-10-11T12:26:19.485Z,49.50
2018-10-11T12:28:47.588Z,49.80
2018-10-11T12:31:15.628Z,50.10
2018-10-11T12:33:43.773Z,50.00
2018-10-11T12:36:11.879Z,49.70
2018-10-11T12:38:40.012Z,49.50
2018-10-11T12:41:08.080Z,48.90
2018-10-11T12:43:36.215Z,49.20
2018-10-11T12:46:04.285Z,49.30
2018-10-11T12:48:32.439Z,49.30
2018-10-11T12:51:00.793Z,48.50
2018-10-11T12:53:28.884Z,48.70
2018-10-11T12:55:56.969Z,48.50
2018-10-11T12:58:25.067Z,49.10
2018-10-11T13:00:53.212Z,48.60
2018-10-11T13:03:21.383Z,48.60
2018-10-11T13:05:49.435Z,48.40
2018-10-11T13:08:17.532Z,48.40
2018-10-11T13:10:45.621Z,47.90
2018-10-11T13:13:13.723Z,47.90
2018-10-11T13:15:42.278Z,48.00
2018-10-11T13:18:09.991Z,47.70
2018-10-11T13:20:38.069Z,47.30
2018-10-11T13:23:09.775Z,46.90
2018-10-11T13:25:34.302Z,46.90
2018-10-11T13:28:02.371Z,46.90
2018-10-11T13:30:30.480Z,46.70
2018-10-11T13:32:58.622Z,47.10
2018-10-11T13:35:26.722Z,46.30
2018-10-11T13:37:54.776Z,46.20
2018-10-11T13:40:22.891Z,46.10
2018-10-11T13:42:50.949Z,46.10
2018-10-11T13:45:19.039Z,46.10
2018-10-11T13:47:47.188Z,46.00
2018-10-11T13:50:15.321Z,45.60
2018-10-11T13:52:43.434Z,45.80
2018-10-11T13:55:14.189Z,45.60
2018-10-11T13:57:39.619Z,45.30
2018-10-11T14:00:08.251Z,45.40
2018-10-11T14:02:36.392Z,45.40
2018-10-11T14:05:04.753Z,45.70
2018-10-11T14:07:32.825Z,45.40
2018-10-11T14:10:02.000Z,45.40
2018-10-11T14:12:30.097Z,45.00
2018-10-11T14:14:58.211Z,44.50
2018-10-11T14:17:26.274Z,44.40
2018-10-11T14:19:54.378Z,43.70
2018-10-11T14:22:22.434Z,43.60
2018-10-11T14:24:50.552Z,43.80
2018-10-11T14:27:18.621Z,44.00
2018-10-11T14:29:46.740Z,44.10
2018-10-11T14:32:14.813Z,43.90
2018-10-11T14:34:42.917Z,44.10
2018-10-11T14:37:11.167Z,44.00
2018-10-11T14:39:39.184Z,44.20
2018-10-11T14:42:07.737Z,44.00
2018-10-11T14:44:35.736Z,43.90
2018-10-11T14:47:03.896Z,44.10
2018-10-11T14:49:31.969Z,44.30
2018-10-11T14:52:00.106Z,44.50
2018-10-11T14:54:30.860Z,44.50
2018-10-11T14:56:59.012Z,44.40
2018-10-11T14:59:27.266Z,44.50
2018-10-11T15:01:55.343Z,44.30
2018-10-11T15:04:23.431Z,44.00
2018-10-11T15:06:51.648Z,43.90
2018-10-11T15:09:19.705Z,43.90
2018-10-11T15:11:47.788Z,44.30
2018-10-11T15:14:15.859Z,44.30
2018-10-11T15:16:43.936Z,44.30
2018-10-11T15:19:11.995Z,44.60
2018-10-11T15:21:40.068Z,44.60
2018-10-11T15:24:08.164Z,45.10
2018-10-11T15:26:36.265Z,44.90
2018-10-11T15:29:04.342Z,44.80
2018-10-11T15:31:32.452Z,45.10
2018-10-11T15:34:00.690Z,46.30
2018-10-11T15:36:28.804Z,45.50
2018-10-11T15:38:56.913Z,45.80
2018-10-11T15:41:25.008Z,46.30
2018-10-11T15:43:53.093Z,46.20
2018-10-11T15:46:21.194Z,46.20
2018-10-11T15:48:49.268Z,47.00
2018-10-11T15:51:17.358Z,46.50
2018-10-11T15:53:45.416Z,46.70
2018-10-11T15:56:13.519Z,46.70
2018-10-11T15:58:41.605Z,47.10
2018-10-11T16:01:10.043Z,47.70
2018-10-11T16:03:38.113Z,47.80
2018-10-11T16:06:06.214Z,48.10
2018-10-11T16:08:34.396Z,48.30
2018-10-11T16:11:02.513Z,48.60
2018-10-11T16:13:30.600Z,48.40
2018-10-11T16:15:58.681Z,48.30
2018-10-11T16:18:26.769Z,48.70
2018-10-11T16:20:54.987Z,49.00
2018-10-11T16:23:23.079Z,49.20
2018-10-11T16:25:51.214Z,49.40
2018-10-11T16:28:19.303Z,49.80
2018-10-11T16:30:47.415Z,49.90
2018-10-11T16:33:15.548Z,50.30
2018-10-11T16:35:43.670Z,50.30
2018-10-11T16:38:11.758Z,51.10
2018-10-11T16:40:40.355Z,51.80
2018-10-11T16:43:08.437Z,52.30
2018-10-11T16:45:36.563Z,53.10
2018-10-11T16:48:04.701Z,53.90
2018-10-11T16:50:33.050Z,55.00
2018-10-11T16:53:01.614Z,55.90
2018-10-11T16:55:29.743Z,55.90
2018-10-11T16:57:57.932Z,56.20
2018-10-11T17:00:26.180Z,56.80
2018-10-11T17:02:54.546Z,57.10
2018-10-11T17:05:22.660Z,57.70
2018-10-11T17:07:50.815Z,58.00
2018-10-11T17:10:20.012Z,59.10
2018-10-11T17:12:48.101Z,59.40
2018-10-11T17:15:16.189Z,59.70
2018-10-11T17:17:44.307Z,60.00
2018-10-11T17:20:12.393Z,60.80
2018-10-11T17:22:40.480Z,61.30
2018-10-11T17:25:08.563Z,61.70
2018-10-11T17:27:36.668Z,62.20
2018-10-11T17:30:04.789Z,62.90
2018-10-11T17:32:32.913Z,63.40
2018-10-11T17:35:01.069Z,63.80
2018-10-11T17:37:32.074Z,64.10
2018-10-11T17:40:00.183Z,64.50
2018-10-11T17:42:28.332Z,64.80
2018-10-11T17:44:56.415Z,65.00
2018-10-11T17:47:26.986Z,65.30
2018-10-11T17:49:55.085Z,65.50
2018-10-11T17:52:23.285Z,65.70
2018-10-11T17:58:27.566Z,66.30
2018-10-11T18:00:55.699Z,66.70
2018-10-11T18:03:23.893Z,67.20
2018-10-11T18:05:52.007Z,67.80
2018-10-11T18:08:20.118Z,68.20
2018-10-11T18:10:48.600Z,68.40
2018-10-11T18:13:16.736Z,68.90
2018-10-11T18:15:44.938Z,69.10
2018-10-11T18:18:13.424Z,69.50
2018-10-11T18:20:41.549Z,69.50
2018-10-11T18:23:09.839Z,69.80
2018-10-11T18:25:37.969Z,70.60
2018-10-11T18:28:06.159Z,70.60
2018-10-11T18:30:34.306Z,71.00
2018-10-11T18:33:02.413Z,71.00
2018-10-11T18:35:30.641Z,70.90
2018-10-11T18:37:58.896Z,71.00
2018-10-11T18:40:27.129Z,71.10
2018-10-11T18:42:55.251Z,71.00
2018-10-11T18:45:23.355Z,71.20
2018-10-11T18:47:51.594Z,71.90
2018-10-11T18:50:19.673Z,71.70
2018-10-11T18:52:47.901Z,72.30
2018-10-11T18:55:16.054Z,73.20
2018-10-11T18:57:44.240Z,72.60
2018-10-11T19:00:12.568Z,72.60
2018-10-11T19:02:40.698Z,72.90
2018-10-11T19:05:08.820Z,72.90
2018-10-11T19:07:36.916Z,73.30
2018-10-11T19:10:05.050Z,73.70
2018-10-11T19:12:33.329Z,73.90
2018-10-11T19:15:01.481Z,73.70
2018-10-11T19:17:29.884Z,73.80
2018-10-11T19:19:57.990Z,73.90
2018-10-11T19:22:26.171Z,74.50
2018-10-11T19:24:54.446Z,74.70
2018-10-11T19:27:22.544Z,75.00
2018-10-11T19:29:50.709Z,75.40
2018-10-11T19:32:18.848Z,76.00
2018-10-11T19:34:46.953Z,76.30
2018-10-11T19:37:15.106Z,76.50
2018-10-11T19:39:43.223Z,76.80
2018-10-11T19:42:11.318Z,77.30
2018-10-11T19:44:39.685Z,76.50
2018-10-11T19:47:07.797Z,76.60
2018-10-11T19:49:35.947Z,76.60
2018-10-11T19:52:04.136Z,77.30
2018-10-11T19:54:32.265Z,76.40
2018-10-11T19:57:00.354Z,76.60
2018-10-11T19:59:28.475Z,76.10
2018-10-11T20:01:56.769Z,76.10
2018-10-11T20:04:24.914Z,76.40
2018-10-11T20:06:52.991Z,76.70
2018-10-11T20:09:21.110Z,77.20
2018-10-11T20:11:49.264Z,77.20
2018-10-11T20:14:17.411Z,77.40
2018-10-11T20:16:45.689Z,77.60
2018-10-11T20:19:13.785Z,77.80
2018-10-11T20:21:41.877Z,78.00
2018-10-11T20:24:10.048Z,78.80
2018-10-11T20:26:38.106Z,77.90
2018-10-11T20:29:06.353Z,77.80
2018-10-11T20:31:34.450Z,77.20
2018-10-11T20:34:02.573Z,77.20
2018-10-11T20:36:30.771Z,76.30
2018-10-11T20:38:58.870Z,76.90
2018-10-11T20:41:27.021Z,77.10
2018-10-11T20:43:55.166Z,77.30
2018-10-11T20:46:23.215Z,77.00
2018-10-11T20:48:51.315Z,76.80
2018-10-11T20:51:19.575Z,76.80
2018-10-11T20:53:47.664Z,77.20
2018-10-11T20:56:15.817Z,77.40
2018-10-11T20:58:43.946Z,77.30
2018-10-11T21:01:12.032Z,77.30
2018-10-11T21:03:40.117Z,77.20
2018-10-11T21:06:08.203Z,77.00
2018-10-11T21:08:36.402Z,76.60
2018-10-11T21:11:04.607Z,76.70
2018-10-11T21:13:32.689Z,76.70
2018-10-11T21:16:00.792Z,76.90
2018-10-11T21:18:28.988Z,77.20
2018-10-11T21:20:57.084Z,77.40
2018-10-11T21:23:25.188Z,77.30
2018-10-11T21:25:53.365Z,77.30
2018-10-11T21:28:21.546Z,77.40
2018-10-11T21:30:49.742Z,77.50
2018-10-11T21:33:18.097Z,77.60
2018-10-11T21:35:46.221Z,77.70
2018-10-11T21:38:14.457Z,77.30
2018-10-11T21:40:42.805Z,77.00
2018-10-11T21:43:11.097Z,76.80
2018-10-11T21:45:39.258Z,76.70
2018-10-11T21:48:07.339Z,76.70
2018-10-11T21:50:35.447Z,76.60
2018-10-11T21:53:03.570Z,76.50
2018-10-11T21:55:32.719Z,76.00
2018-10-11T21:58:00.779Z,75.40
2018-10-11T22:00:34.336Z,75.30
2018-10-11T22:03:02.434Z,75.40
2018-10-11T22:05:30.548Z,75.00
2018-10-11T22:07:58.656Z,74.70
2018-10-11T22:10:26.831Z,74.50
2018-10-11T22:12:55.101Z,74.50
2018-10-11T22:15:23.447Z,74.50
2018-10-11T22:17:51.536Z,74.30
2018-10-11T22:20:19.645Z,74.90
2018-10-11T22:22:47.748Z,74.30
2018-10-11T22:25:15.840Z,74.40
2018-10-11T22:27:43.912Z,74.30
2018-10-11T22:30:12.025Z,74.30
2018-10-11T22:32:40.105Z,74.30
2018-10-11T22:35:08.337Z,74.40
2018-10-11T22:37:36.486Z,74.70
2018-10-11T22:40:04.618Z,75.00
2018-10-11T22:42:32.682Z,75.10
2018-10-11T22:45:00.755Z,75.30
2018-10-11T22:47:28.845Z,75.40
2018-10-11T22:49:56.910Z,75.30
2018-10-11T22:52:25.021Z,75.50
2018-10-11T22:54:53.246Z,75.60
2018-10-11T22:57:21.288Z,75.70
2018-10-11T22:59:49.407Z,76.00
2018-10-11T23:02:17.532Z,76.30
2018-10-11T23:04:45.595Z,76.60
2018-10-11T23:07:13.724Z,76.50
2018-10-11T23:09:41.827Z,76.60
2018-10-11T23:12:09.916Z,76.30
2018-10-11T23:14:38.233Z,76.40
2018-10-11T23:17:06.381Z,76.50
2018-10-11T23:19:34.549Z,76.30
2018-10-11T23:22:02.624Z,76.20
2018-10-11T23:24:30.725Z,76.30
2018-10-11T23:26:58.823Z,76.40
2018-10-11T23:29:26.944Z,76.70
2018-10-11T23:31:55.053Z,76.80
2018-10-11T23:34:23.141Z,77.10
2018-10-11T23:36:51.253Z,77.20
2018-10-11T23:39:19.378Z,77.30
2018-10-11T23:41:47.477Z,76.90
2018-10-11T23:44:15.596Z,76.90
2018-10-11T23:46:43.746Z,76.80
2018-10-11T23:49:11.818Z,77.00
2018-10-11T23:51:40.082Z,77.20
2018-10-11T23:54:08.515Z,77.50
2018-10-11T23:56:36.604Z,77.70
2018-10-11T23:59:04.718Z,78.80
